createdAt,value
2018-08-18T00:01:30.868Z,3.80
2018-08-18T00:04:00.196Z,4.03
2018-08-18T00:06:28.613Z,3.60
2018-08-18T00:08:57.015Z,3.43
2018-08-18T00:11:25.489Z,3.73
2018-08-18T00:13:55.991Z,3.77
2018-08-18T00:16:29.070Z,4.33
2018-08-18T00:18:59.416Z,3.70
2018-08-18T00:21:30.620Z,3.17
2018-08-18T00:24:13.737Z,3.90
2018-08-18T00:26:42.125Z,3.73
2018-08-18T00:29:11.139Z,3.90
2018-08-18T00:31:41.471Z,4.30
2018-08-18T00:34:09.926Z,4.00
2018-08-18T00:36:38.322Z,3.87
2018-08-18T00:39:10.919Z,4.33
2018-08-18T00:41:39.624Z,3.07
2018-08-18T00:44:09.443Z,3.73
2018-08-18T00:46:37.862Z,3.40
2018-08-18T00:49:07.203Z,3.57
2018-08-18T00:51:37.868Z,4.43
2018-08-18T00:54:06.437Z,5.60
2018-08-18T00:56:38.664Z,4.97
2018-08-18T00:59:07.100Z,5.33
2018-08-18T01:01:35.612Z,5.23
2018-08-18T01:04:08.375Z,5.00
2018-08-18T01:06:38.537Z,4.87
2018-08-18T01:09:11.962Z,5.03
2018-08-18T01:11:40.565Z,3.53
2018-08-18T01:14:15.337Z,4.00
2018-08-18T01:16:48.824Z,4.83
2018-08-18T01:19:18.040Z,4.03
2018-08-18T01:21:51.493Z,3.53
2018-08-18T01:24:20.710Z,3.70
2018-08-18T01:26:49.572Z,4.00
2018-08-18T01:29:19.050Z,3.73
2018-08-18T01:31:47.971Z,4.00
2018-08-18T01:34:16.440Z,4.57
2018-08-18T01:36:44.849Z,4.70
2018-08-18T01:39:14.433Z,5.07
2018-08-18T01:41:42.960Z,4.90
2018-08-18T01:44:13.665Z,5.57
2018-08-18T01:46:42.654Z,4.00
2018-08-18T01:49:33.639Z,5.00
2018-08-18T01:52:04.377Z,4.43
2018-08-18T01:54:33.187Z,4.90
2018-08-18T01:57:06.617Z,4.20
2018-08-18T01:59:35.262Z,4.70
2018-08-18T02:02:03.808Z,4.43
2018-08-18T02:04:32.228Z,4.43
2018-08-18T02:07:15.489Z,3.90
2018-08-18T02:09:44.457Z,4.47
2018-08-18T02:12:12.844Z,4.50
2018-08-18T02:14:41.279Z,4.57
2018-08-18T02:17:36.209Z,4.03
2018-08-18T02:20:07.264Z,4.20
2018-08-18T02:22:35.625Z,4.90
2018-08-18T02:25:04.182Z,5.50
2018-08-18T02:27:32.584Z,5.27
2018-08-18T02:30:13.392Z,5.63
2018-08-18T02:32:41.821Z,5.33
2018-08-18T02:35:10.295Z,5.73
2018-08-18T02:37:38.698Z,5.43
2018-08-18T02:40:16.138Z,5.27
2018-08-18T02:42:44.617Z,4.30
2018-08-18T02:45:13.782Z,5.10
2018-08-18T02:47:42.556Z,5.07
2018-08-18T02:50:12.346Z,4.73
2018-08-18T02:52:40.806Z,4.70
2018-08-18T02:55:10.816Z,5.07
2018-08-18T02:57:40.560Z,4.60
2018-08-18T03:00:25.832Z,4.73
2018-08-18T03:02:54.227Z,5.27
2018-08-18T03:05:22.763Z,4.73
2018-08-18T03:07:52.066Z,5.83
2018-08-18T03:10:25.613Z,4.30
2018-08-18T03:12:58.751Z,4.53
2018-08-18T03:16:07.539Z,5.70
2018-08-18T03:18:43.251Z,5.10
2018-08-18T03:21:11.748Z,5.40
2018-08-18T03:23:50.149Z,5.47
2018-08-18T03:26:21.160Z,4.23
2018-08-18T03:28:51.109Z,4.30
2018-08-18T03:31:19.864Z,4.27
2018-08-18T03:33:48.276Z,4.40
2018-08-18T03:36:26.893Z,5.80
2018-08-18T03:38:56.191Z,5.00
2018-08-18T03:41:25.453Z,4.70
2018-08-18T03:43:54.555Z,4.43
2018-08-18T03:46:23.008Z,4.97
2018-08-18T03:48:51.834Z,4.87
2018-08-18T03:51:20.627Z,5.00
2018-08-18T03:53:49.076Z,4.93
2018-08-18T03:56:17.519Z,5.13
2018-08-18T03:58:50.472Z,5.37
2018-08-18T04:02:00.192Z,5.80
2018-08-18T04:04:32.899Z,5.27
2018-08-18T04:07:01.974Z,6.30
2018-08-18T04:09:31.528Z,6.20
2018-08-18T04:12:01.710Z,4.97
2018-08-18T04:14:35.376Z,5.73
2018-08-18T04:17:03.902Z,5.90
2018-08-18T04:19:32.332Z,5.73
2018-08-18T04:22:00.743Z,6.03
2018-08-18T04:24:36.366Z,6.00
2018-08-18T04:27:04.871Z,5.73
2018-08-18T04:29:33.256Z,6.43
2018-08-18T04:32:02.255Z,5.63
2018-08-18T04:34:30.741Z,5.43
2018-08-18T04:37:00.300Z,6.53
2018-08-18T04:39:28.702Z,6.03
2018-08-18T04:41:57.180Z,5.93
2018-08-18T04:44:25.639Z,5.83
2018-08-18T04:46:54.095Z,5.50
2018-08-18T04:49:22.526Z,5.40
2018-08-18T04:51:50.955Z,6.17
2018-08-18T04:54:19.800Z,5.90
2018-08-18T04:56:48.247Z,6.63
2018-08-18T04:59:16.640Z,5.90
2018-08-18T05:01:45.061Z,6.67
2018-08-18T05:04:13.860Z,5.93
2018-08-18T05:06:43.547Z,5.87
2018-08-18T05:09:13.761Z,5.13
2018-08-18T05:11:42.251Z,6.10
2018-08-18T05:14:10.602Z,6.53
2018-08-18T05:16:38.952Z,6.17
2018-08-18T05:19:08.317Z,5.20
2018-08-18T05:21:36.643Z,4.77
2018-08-18T05:24:22.173Z,5.37
2018-08-18T05:26:51.441Z,5.40
2018-08-18T05:29:19.907Z,6.10
2018-08-18T05:31:48.463Z,6.90
2018-08-18T05:34:16.933Z,7.37
2018-08-18T05:36:45.699Z,7.60
2018-08-18T05:39:14.185Z,7.70
2018-08-18T05:41:42.632Z,7.23
2018-08-18T05:44:11.110Z,8.50
2018-08-18T05:46:39.523Z,7.40
2018-08-18T05:49:12.987Z,8.30
2018-08-18T05:51:44.892Z,8.87
2018-08-18T05:54:14.356Z,8.37
2018-08-18T05:56:44.253Z,7.87
2018-08-18T05:59:12.672Z,7.90
2018-08-18T06:01:41.816Z,7.73
2018-08-18T06:04:13.563Z,8.00
2018-08-18T06:06:42.729Z,9.80
2018-08-18T06:09:13.486Z,8.43
2018-08-18T06:11:42.131Z,9.10
2018-08-18T06:14:11.700Z,9.53
2018-08-18T06:16:40.477Z,9.40
2018-08-18T06:19:09.020Z,9.07
2018-08-18T06:21:37.478Z,9.73
2018-08-18T06:24:06.024Z,10.30
2018-08-18T06:26:34.573Z,10.47
2018-08-18T06:29:03.079Z,10.70
2018-08-18T06:31:32.061Z,11.50
2018-08-18T06:34:00.500Z,11.53
2018-08-18T06:36:28.892Z,10.97
2018-08-18T06:38:57.288Z,12.70
2018-08-18T06:41:25.845Z,11.77
2018-08-18T06:43:54.247Z,12.13
2018-08-18T06:46:22.691Z,12.50
2018-08-18T06:48:51.077Z,11.83
2018-08-18T06:51:19.536Z,12.10
2018-08-18T06:53:48.959Z,12.67
2018-08-18T06:56:18.381Z,12.50
2018-08-18T06:58:46.880Z,11.50
2018-08-18T07:01:15.344Z,11.90
2018-08-18T07:03:45.317Z,11.20
2018-08-18T07:06:15.177Z,11.70
2018-08-18T07:08:48.928Z,12.17
2018-08-18T07:11:17.392Z,12.00
2018-08-18T07:13:46.386Z,11.50
2018-08-18T07:16:14.849Z,12.50
2018-08-18T07:18:43.294Z,10.97
2018-08-18T07:21:11.733Z,11.53
2018-08-18T07:23:40.210Z,12.37
2018-08-18T07:26:09.991Z,11.07
2018-08-18T07:28:39.203Z,11.83
2018-08-18T07:31:07.648Z,11.10
2018-08-18T07:33:36.166Z,10.67
2018-08-18T07:36:04.640Z,10.20
2018-08-18T07:38:33.100Z,9.30
2018-08-18T07:41:02.497Z,11.43
2018-08-18T07:43:33.066Z,10.87
2018-08-18T07:46:03.019Z,11.63
2018-08-18T07:48:31.774Z,11.90
2018-08-18T07:51:00.192Z,13.07
2018-08-18T07:53:28.634Z,13.80
2018-08-18T07:55:57.057Z,9.30
2018-08-18T07:58:25.903Z,8.47
2018-08-18T08:00:56.963Z,8.87
2018-08-18T08:03:25.452Z,9.60
2018-08-18T08:05:53.905Z,11.67
2018-08-18T08:08:22.347Z,10.13
2018-08-18T08:10:51.230Z,8.90
2018-08-18T08:13:19.652Z,11.07
2018-08-18T08:15:48.109Z,8.90
2018-08-18T08:18:16.558Z,9.10
2018-08-18T08:20:45.314Z,10.23
2018-08-18T08:23:13.820Z,11.60
2018-08-18T08:25:42.301Z,11.60
2018-08-18T08:28:10.744Z,9.97
2018-08-18T08:30:39.176Z,8.83
2018-08-18T08:33:07.685Z,8.93
2018-08-18T08:35:37.888Z,7.23
2018-08-18T08:38:06.551Z,5.47
2018-08-18T08:40:35.219Z,5.90
2018-08-18T08:43:03.735Z,5.70
2018-08-18T08:45:32.276Z,6.07
2018-08-18T08:48:00.688Z,6.33
2018-08-18T08:50:29.157Z,5.27
2018-08-18T08:52:58.100Z,6.17
2018-08-18T08:55:27.890Z,6.03
2018-08-18T08:57:56.352Z,5.30
2018-08-18T09:00:24.799Z,8.60
2018-08-18T09:02:53.867Z,5.13
2018-08-18T09:05:22.399Z,5.20
2018-08-18T09:07:50.845Z,4.90
2018-08-18T09:10:19.352Z,4.60
2018-08-18T09:12:47.732Z,4.53
2018-08-18T09:15:17.316Z,4.33
2018-08-18T09:17:45.850Z,4.80
2018-08-18T09:20:17.466Z,5.00
2018-08-18T09:22:58.452Z,4.90
2018-08-18T09:25:28.049Z,3.90
2018-08-18T09:27:59.670Z,4.40
2018-08-18T09:30:30.191Z,3.50
2018-08-18T09:32:59.284Z,6.90
2018-08-18T09:35:27.785Z,4.23
2018-08-18T09:38:01.471Z,4.67
2018-08-18T09:40:32.093Z,3.70
2018-08-18T09:43:04.165Z,5.20
2018-08-18T09:45:32.689Z,4.00
2018-08-18T09:48:01.152Z,4.27
2018-08-18T09:50:29.599Z,3.70
2018-08-18T09:52:58.003Z,3.50
2018-08-18T09:55:26.488Z,4.03
2018-08-18T09:57:54.978Z,3.10
2018-08-18T10:00:27.757Z,7.57
2018-08-18T10:02:56.251Z,4.67
2018-08-18T10:05:24.714Z,4.20
2018-08-18T10:07:53.151Z,6.43
2018-08-18T10:10:21.593Z,5.80
2018-08-18T10:12:50.045Z,5.23
2018-08-18T10:15:18.503Z,6.17
2018-08-18T10:17:46.928Z,5.93
2018-08-18T10:20:15.409Z,5.73
2018-08-18T10:22:45.332Z,6.43
2018-08-18T10:25:13.776Z,6.57
2018-08-18T10:27:42.156Z,5.20
2018-08-18T10:30:10.763Z,5.80
2018-08-18T10:32:55.694Z,7.43
2018-08-18T10:35:32.444Z,7.60
2018-08-18T10:38:02.472Z,7.00
2018-08-18T10:40:30.981Z,7.40
2018-08-18T10:42:59.473Z,8.20
2018-08-18T10:45:27.889Z,6.93
2018-08-18T10:47:56.399Z,7.83
2018-08-18T10:51:35.254Z,7.00
2018-08-18T10:54:03.721Z,7.23
2018-08-18T10:56:32.224Z,6.87
2018-08-18T10:59:13.160Z,7.40
2018-08-18T11:01:56.935Z,5.90
2018-08-18T11:04:25.516Z,6.93
2018-08-18T11:06:53.944Z,6.97
2018-08-18T11:09:22.369Z,7.03
2018-08-18T11:11:50.918Z,5.73
2018-08-18T11:14:19.337Z,5.60
2018-08-18T11:16:48.025Z,6.00
2018-08-18T11:19:16.433Z,6.40
2018-08-18T11:21:45.569Z,5.23
2018-08-18T11:24:13.924Z,6.00
2018-08-18T11:26:42.362Z,5.60
2018-08-18T11:29:17.369Z,4.27
2018-08-18T11:31:46.196Z,4.63
2018-08-18T11:34:16.841Z,5.37
2018-08-18T11:36:59.389Z,5.23
2018-08-18T11:39:28.676Z,5.47
2018-08-18T11:41:58.362Z,5.83
2018-08-18T11:44:26.830Z,5.40
2018-08-18T11:46:55.278Z,5.03
2018-08-18T11:49:23.675Z,6.10
2018-08-18T11:51:52.272Z,6.13
2018-08-18T11:54:20.720Z,6.73
2018-08-18T11:56:53.155Z,5.00
2018-08-18T11:59:21.581Z,5.23
2018-08-18T12:01:51.801Z,7.57
2018-08-18T12:04:21.367Z,10.60
2018-08-18T12:06:54.866Z,5.87
2018-08-18T12:09:23.662Z,4.30
2018-08-18T12:11:52.421Z,4.83
2018-08-18T12:14:21.439Z,4.53
2018-08-18T12:16:49.952Z,4.67
2018-08-18T12:19:18.452Z,5.17
2018-08-18T12:21:47.596Z,4.57
2018-08-18T12:24:17.820Z,4.60
2018-08-18T12:26:58.422Z,5.23
2018-08-18T12:29:27.855Z,4.50
2018-08-18T12:31:56.268Z,5.73
2018-08-18T12:34:24.896Z,4.90
2018-08-18T12:36:53.433Z,3.90
2018-08-18T12:39:21.760Z,4.47
2018-08-18T12:41:50.213Z,4.50
2018-08-18T12:44:22.780Z,3.93
2018-08-18T12:46:51.241Z,3.30
2018-08-18T12:49:20.314Z,2.60
2018-08-18T12:51:48.789Z,2.97
2018-08-18T12:54:17.187Z,3.33
2018-08-18T12:56:45.749Z,3.10
2018-08-18T12:59:14.537Z,3.20
2018-08-18T13:01:48.561Z,3.33
2018-08-18T13:04:19.622Z,2.97
2018-08-18T13:06:49.665Z,3.43
2018-08-18T13:09:20.446Z,2.63
2018-08-18T13:11:50.650Z,2.60
2018-08-18T13:14:25.422Z,2.87
2018-08-18T13:16:53.957Z,3.03
2018-08-18T13:19:32.446Z,3.30
2018-08-18T13:22:00.919Z,3.03
2018-08-18T13:24:31.278Z,3.23
2018-08-18T13:27:00.525Z,3.07
2018-08-18T13:29:28.913Z,2.70
2018-08-18T13:31:57.401Z,2.77
2018-08-18T13:34:25.905Z,3.13
2018-08-18T13:36:54.349Z,3.00
2018-08-18T13:39:22.772Z,3.30
2018-08-18T13:41:51.193Z,3.53
2018-08-18T13:44:26.215Z,2.40
2018-08-18T13:46:54.681Z,2.60
2018-08-18T13:49:26.833Z,2.80
2018-08-18T13:51:55.270Z,2.90
2018-08-18T13:54:23.723Z,2.50
2018-08-18T13:56:52.219Z,2.90
2018-08-18T13:59:41.727Z,2.60
2018-08-18T14:02:10.582Z,2.63
2018-08-18T14:04:44.146Z,2.80
2018-08-18T14:07:13.139Z,2.43
2018-08-18T14:09:43.717Z,3.23
2018-08-18T14:12:15.248Z,2.73
2018-08-18T14:14:43.995Z,2.60
2018-08-18T14:17:13.298Z,3.00
2018-08-18T14:19:41.917Z,3.10
2018-08-18T14:22:11.047Z,3.23
2018-08-18T14:24:41.049Z,2.40
2018-08-18T14:27:12.709Z,2.90
2018-08-18T14:29:41.195Z,2.77
2018-08-18T14:32:15.172Z,2.30
2018-08-18T14:34:49.219Z,2.70
2018-08-18T14:37:17.624Z,2.77
2018-08-18T14:39:46.032Z,2.93
2018-08-18T14:42:14.500Z,2.53
2018-08-18T14:44:43.049Z,2.90
2018-08-18T14:47:12.105Z,2.60
2018-08-18T14:49:40.520Z,2.60
2018-08-18T14:52:08.904Z,2.50
2018-08-18T14:54:39.668Z,2.57
2018-08-18T14:57:08.140Z,2.20
2018-08-18T14:59:38.062Z,2.47
2018-08-18T15:02:07.927Z,2.63
2018-08-18T15:04:36.581Z,2.20
2018-08-18T15:07:05.136Z,2.37
2018-08-18T15:09:41.692Z,2.63
2018-08-18T15:12:10.275Z,1.93
2018-08-18T15:14:38.891Z,2.63
2018-08-18T15:17:07.430Z,1.70
2018-08-18T15:19:35.876Z,2.10
2018-08-18T15:22:07.013Z,2.53
2018-08-18T15:24:36.392Z,2.43
2018-08-18T15:27:04.906Z,1.83
2018-08-18T15:29:33.328Z,2.37
2018-08-18T15:32:01.760Z,1.90
2018-08-18T15:34:30.198Z,1.97
2018-08-18T15:36:58.680Z,2.10
2018-08-18T15:39:28.673Z,2.57
2018-08-18T15:41:58.607Z,3.00
2018-08-18T15:44:27.051Z,2.10
2018-08-18T15:46:55.504Z,2.30
2018-08-18T15:49:23.934Z,2.40
2018-08-18T15:51:52.692Z,1.67
2018-08-18T15:54:23.762Z,2.33
2018-08-18T15:56:52.093Z,1.90
2018-08-18T15:59:20.550Z,2.10
2018-08-18T16:01:49.086Z,2.13
2018-08-18T16:04:17.529Z,2.43
2018-08-18T16:06:46.277Z,2.40
2018-08-18T16:09:14.789Z,1.97
2018-08-18T16:11:43.185Z,1.93
2018-08-18T16:14:11.603Z,1.70
2018-08-18T16:16:55.786Z,1.90
2018-08-18T16:19:24.627Z,2.10
2018-08-18T16:21:53.104Z,2.20
2018-08-18T16:24:46.256Z,1.90
2018-08-18T16:27:14.883Z,2.33
2018-08-18T16:29:43.325Z,1.80
2018-08-18T16:32:27.458Z,1.87
2018-08-18T16:35:02.528Z,2.37
2018-08-18T16:37:31.549Z,2.37
2018-08-18T16:39:59.968Z,2.20
2018-08-18T16:42:28.495Z,2.30
2018-08-18T16:44:56.942Z,2.87
2018-08-18T16:47:25.447Z,1.83
2018-08-18T16:49:53.843Z,2.10
2018-08-18T16:52:22.303Z,2.17
2018-08-18T16:54:50.688Z,2.30
2018-08-18T16:57:19.073Z,1.97
2018-08-18T16:59:47.521Z,2.43
2018-08-18T17:02:30.049Z,1.97
2018-08-18T17:04:58.724Z,1.90
2018-08-18T17:07:27.555Z,2.10
2018-08-18T17:09:56.061Z,1.87
2018-08-18T17:12:28.327Z,2.07
2018-08-18T17:14:57.731Z,2.10
2018-08-18T17:17:26.716Z,1.83
2018-08-18T17:19:55.243Z,1.97
2018-08-18T17:22:23.668Z,2.23
2018-08-18T17:24:52.196Z,1.90
2018-08-18T17:27:20.596Z,2.20
2018-08-18T17:29:51.588Z,1.97
2018-08-18T17:32:20.028Z,2.20
2018-08-18T17:34:48.424Z,2.20
2018-08-18T17:37:16.872Z,2.60
2018-08-18T17:39:45.367Z,2.30
2018-08-18T17:42:13.787Z,2.30
2018-08-18T17:44:42.345Z,2.30
2018-08-18T17:47:11.504Z,2.17
2018-08-18T17:49:46.299Z,2.20
2018-08-18T17:52:15.500Z,2.17
2018-08-18T17:54:49.567Z,2.23
2018-08-18T17:57:18.005Z,2.10
2018-08-18T17:59:46.379Z,2.37
2018-08-18T18:02:16.280Z,2.43
2018-08-18T18:04:45.589Z,2.20
2018-08-18T18:07:14.097Z,2.20
2018-08-18T18:09:42.560Z,2.10
2018-08-18T18:12:21.972Z,2.23
2018-08-18T18:14:50.429Z,2.10
2018-08-18T18:17:19.853Z,2.47
2018-08-18T18:19:48.288Z,2.40
2018-08-18T18:22:16.749Z,2.60
2018-08-18T18:24:45.326Z,2.73
2018-08-18T18:27:13.755Z,2.93
2018-08-18T18:29:44.074Z,2.10
2018-08-18T18:32:12.626Z,2.60
2018-08-18T18:34:41.371Z,2.47
2018-08-18T18:37:09.831Z,2.63
2018-08-18T18:39:56.877Z,3.20
2018-08-18T18:42:25.982Z,2.70
2018-08-18T18:44:54.549Z,2.37
2018-08-18T18:47:22.991Z,2.53
2018-08-18T18:49:51.440Z,2.80
2018-08-18T18:52:20.281Z,2.80
2018-08-18T18:54:48.980Z,2.90
2018-08-18T18:57:17.524Z,2.97
2018-08-18T18:59:51.811Z,3.00
2018-08-18T19:02:21.463Z,3.57
2018-08-18T19:04:49.888Z,2.77
2018-08-18T19:07:18.409Z,3.40
2018-08-18T19:09:48.587Z,3.40
2018-08-18T19:12:17.135Z,5.07
2018-08-18T19:14:45.523Z,3.27
2018-08-18T19:17:13.942Z,3.10
2018-08-18T19:19:42.375Z,2.90
2018-08-18T19:22:10.910Z,3.50
2018-08-18T19:24:39.288Z,3.40
2018-08-18T19:27:07.803Z,3.00
2018-08-18T19:29:36.203Z,3.90
2018-08-18T19:32:04.675Z,5.37
2018-08-18T19:34:33.101Z,9.40
2018-08-18T19:37:08.308Z,4.00
2018-08-18T19:39:37.488Z,4.40
2018-08-18T19:42:11.867Z,4.07
2018-08-18T19:44:43.033Z,7.03
2018-08-18T19:47:11.542Z,4.87
2018-08-18T19:49:44.281Z,8.30
2018-08-18T19:52:13.835Z,3.83
2018-08-18T19:54:50.744Z,4.13
2018-08-18T19:57:26.154Z,3.50
2018-08-18T20:00:00.204Z,4.23
2018-08-18T20:02:37.543Z,3.40
2018-08-18T20:05:06.632Z,4.07
2018-08-18T20:07:35.133Z,4.60
2018-08-18T20:10:03.616Z,4.10
2018-08-18T20:12:32.043Z,3.87
2018-08-18T20:15:01.043Z,5.80
2018-08-18T20:17:29.631Z,13.80
2018-08-18T20:19:58.078Z,7.03
2018-08-18T20:22:26.612Z,6.60
2018-08-18T20:24:55.037Z,4.80
2018-08-18T20:27:23.619Z,3.80
2018-08-18T20:29:52.104Z,3.33
2018-08-18T20:32:20.881Z,3.50
2018-08-18T20:34:49.268Z,3.50
2018-08-18T20:37:17.711Z,2.90
2018-08-18T20:39:46.190Z,2.97
2018-08-18T20:42:14.956Z,3.07
2018-08-18T20:44:43.394Z,3.17
2018-08-18T20:47:11.852Z,3.43
2018-08-18T20:49:40.276Z,3.60
2018-08-18T20:52:09.651Z,3.10
2018-08-18T20:54:38.170Z,3.97
2018-08-18T20:57:06.654Z,3.67
2018-08-18T20:59:35.091Z,3.67
2018-08-18T21:02:03.633Z,3.30
2018-08-18T21:04:32.047Z,3.37
2018-08-18T21:07:00.472Z,3.30
2018-08-18T21:09:30.401Z,2.93
2018-08-18T21:11:58.820Z,3.63
2018-08-18T21:14:29.925Z,3.57
2018-08-18T21:16:58.544Z,3.43
2018-08-18T21:19:27.488Z,3.80
2018-08-18T21:21:56.611Z,3.03
2018-08-18T21:24:25.032Z,3.53
2018-08-18T21:26:53.477Z,3.73
2018-08-18T21:29:24.289Z,3.90
2018-08-18T21:31:52.755Z,3.73
2018-08-18T21:34:21.263Z,3.60
2018-08-18T21:36:49.705Z,3.57
2018-08-18T21:39:18.141Z,3.87
2018-08-18T21:41:47.692Z,3.80
2018-08-18T21:44:16.307Z,3.57
2018-08-18T21:46:44.966Z,4.20
2018-08-18T21:49:13.680Z,3.47
2018-08-18T21:51:42.122Z,3.20
2018-08-18T21:54:10.631Z,3.97
2018-08-18T21:56:42.434Z,4.87
2018-08-18T21:59:14.029Z,3.13
2018-08-18T22:01:42.628Z,3.63
2018-08-18T22:04:11.901Z,3.60
2018-08-18T22:06:40.483Z,3.60
2018-08-18T22:09:20.171Z,3.60
2018-08-18T22:11:48.616Z,3.80
2018-08-18T22:14:18.003Z,3.87
2018-08-18T22:16:54.621Z,4.03
2018-08-18T22:19:23.244Z,4.10
2018-08-18T22:21:51.724Z,4.10
2018-08-18T22:24:20.266Z,3.80
2018-08-18T22:26:48.932Z,3.70
2018-08-18T22:29:17.413Z,4.47
2018-08-18T22:31:45.843Z,4.67
2018-08-18T22:34:14.242Z,4.07
2018-08-18T22:36:42.763Z,3.83
2018-08-18T22:39:12.050Z,3.90
2018-08-18T22:41:44.293Z,4.37
2018-08-18T22:44:12.711Z,3.70
2018-08-18T22:46:41.120Z,4.20
2018-08-18T22:49:09.583Z,4.20
2018-08-18T22:51:38.407Z,3.93
2018-08-18T22:54:06.901Z,4.03
2018-08-18T22:56:35.340Z,4.00
2018-08-18T22:59:05.387Z,4.27
2018-08-18T23:01:35.575Z,4.40
2018-08-18T23:04:05.075Z,4.27
2018-08-18T23:06:36.636Z,3.90
2018-08-18T23:09:06.690Z,4.17
2018-08-18T23:11:35.876Z,4.23
2018-08-18T23:14:04.926Z,3.60
2018-08-18T23:16:33.399Z,3.67
2018-08-18T23:19:01.888Z,4.10
2018-08-18T23:21:30.878Z,3.70
2018-08-18T23:24:01.768Z,4.70
2018-08-18T23:26:30.197Z,4.27
2018-08-18T23:28:58.645Z,4.87
2018-08-18T23:31:27.072Z,4.50
2018-08-18T23:33:55.514Z,4.30
2018-08-18T23:36:24.083Z,4.30
2018-08-18T23:38:58.424Z,4.30
2018-08-18T23:41:26.926Z,4.10
2018-08-18T23:43:55.804Z,4.90
2018-08-18T23:46:24.499Z,4.70
2018-08-18T23:48:53.372Z,4.77
2018-08-18T23:51:26.989Z,4.90
2018-08-18T23:53:55.424Z,6.00
2018-08-18T23:56:27.564Z,5.10
2018-08-18T23:58:57.550Z,5.70
